Time;durP1;ratioP1;P1;durP2;ratioP2;P2;SDS_P1;SDS_P2;PMS_P1;PMS_P2;Temp;Humidity;BMP_temperature;BMP_pressure;BME280_temperature;BME280_humidity;BME280_pressure;Samples;Min_cycle;Max_cycle;Signal;HPM_P1;HPM_P2
2023/09/03 00:01:32;;;;;;;18.35;13.73;;;15.90;99.90;;;;;;5075878;28;20178;-80
2023/09/03 00:03:58;;;;;;;19.02;14.60;;;15.80;99.90;;;;;;5075834;28;20215;-79
2023/09/03 00:06:24;;;;;;;16.33;14.18;;;15.80;99.90;;;;;;5075332;28;20244;-80
2023/09/03 00:08:50;;;;;;;17.73;13.93;;;15.90;99.90;;;;;;5075326;28;20209;-79
2023/09/03 00:11:16;;;;;;;19.90;15.13;;;15.90;99.90;;;;;;5075790;28;20174;-80
2023/09/03 00:13:43;;;;;;;18.85;14.75;;;15.90;99.90;;;;;;5075156;28;20190;-79
2023/09/03 00:16:09;;;;;;;22.17;15.65;;;15.90;99.90;;;;;;5075027;28;20551;-79
2023/09/03 00:18:36;;;;;;;19.40;15.23;;;15.90;99.90;;;;;;5075186;28;20206;-78
2023/09/03 00:21:04;;;;;;;17.63;15.32;;;15.80;99.90;;;;;;5075691;28;20682;-80
2023/09/03 00:23:31;;;;;;;21.90;15.85;;;15.80;99.90;;;;;;5076394;28;20669;-78
2023/09/03 00:25:58;;;;;;;21.70;15.68;;;15.80;99.90;;;;;;5074489;28;20178;-79
2023/09/03 00:28:24;;;;;;;20.50;15.38;;;15.80;99.90;;;;;;5075183;28;20666;-79
2023/09/03 00:31:21;;;;;;;23.85;18.00;;;15.80;99.90;;;;;;5075169;28;20173;-80
2023/09/03 00:33:47;;;;;;;26.27;18.52;;;15.70;99.90;;;;;;5066562;28;20213;-80
2023/09/03 00:36:14;;;;;;;19.42;15.75;;;15.70;99.90;;;;;;5074892;28;20178;-80
2023/09/03 00:38:40;;;;;;;26.75;18.42;;;15.70;99.90;;;;;;5074847;28;20216;-79
2023/09/03 00:41:05;;;;;;;27.58;18.48;;;15.70;99.90;;;;;;5074977;28;20173;-79
2023/09/03 00:43:32;;;;;;;23.48;18.65;;;15.60;99.90;;;;;;5075174;28;20205;-79
2023/09/03 00:46:01;;;;;;;27.30;18.00;;;15.60;99.90;;;;;;5075269;28;20727;-79
2023/09/03 00:48:28;;;;;;;25.77;18.13;;;15.60;99.90;;;;;;5075156;28;20208;-78
2023/09/03 00:50:56;;;;;;;26.40;18.10;;;15.60;99.90;;;;;;5086067;28;20183;-80
2023/09/03 00:53:24;;;;;;;23.52;17.35;;;15.50;99.90;;;;;;5080939;28;20190;-78
2023/09/03 00:55:50;;;;;;;24.65;17.67;;;15.50;99.90;;;;;;5074445;28;20181;-79
2023/09/03 00:58:16;;;;;;;26.48;19.15;;;15.50;99.90;;;;;;5074324;28;20182;-79
2023/09/03 01:00:42;;;;;;;31.60;19.63;;;15.50;99.90;;;;;;5075496;28;20181;-79
2023/09/03 01:03:08;;;;;;;29.30;20.58;;;15.50;99.90;;;;;;5074063;28;20343;-78
2023/09/03 01:05:34;;;;;;;33.65;21.20;;;15.50;99.90;;;;;;5074488;28;20200;-79
2023/09/03 01:08:02;;;;;;;33.92;20.77;;;15.40;99.90;;;;;;5075056;28;20240;-79
2023/09/03 01:10:42;;;;;;;29.52;20.63;;;15.40;99.90;;;;;;5075562;28;20170;-79
2023/09/03 01:13:17;;;;;;;32.38;21.70;;;15.40;99.90;;;;;;5074063;28;20378;-79
2023/09/03 01:15:48;;;;;;;40.38;24.73;;;15.30;99.90;;;;;;5074233;28;20158;-79
2023/09/03 01:18:26;;;;;;;47.28;24.20;;;15.40;99.90;;;;;;5073608;28;20166;-78
2023/09/03 01:21:29;;;;;;;38.95;22.52;;;15.30;99.90;;;;;;5073815;28;20176;-79
2023/09/03 01:24:20;;;;;;;32.72;20.27;;;15.20;99.90;;;;;;5054227;28;20232;-78
2023/09/03 01:27:23;;;;;;;32.92;21.40;;;15.20;99.90;;;;;;5055532;28;20170;-79
2023/09/03 01:29:50;;;;;;;35.28;19.80;;;15.20;99.90;;;;;;5054706;28;20265;-79
2023/09/03 01:32:17;;;;;;;39.88;19.23;;;15.10;99.90;;;;;;5055806;28;20198;-79
2023/09/03 01:34:45;;;;;;;34.22;19.65;;;15.00;99.90;;;;;;5054298;28;20186;-79
2023/09/03 01:37:11;;;;;;;31.02;19.77;;;14.90;99.90;;;;;;5056698;28;20174;-79
2023/09/03 01:39:37;;;;;;;29.73;17.80;;;14.80;99.90;;;;;;5058454;28;20297;-80
2023/09/03 01:42:03;;;;;;;34.90;16.85;;;14.80;99.90;;;;;;5058389;28;20213;-79
2023/09/03 01:44:29;;;;;;;19.13;15.10;;;14.80;99.90;;;;;;5058143;28;20555;-80
2023/09/03 01:47:24;;;;;;;25.63;16.42;;;14.80;99.90;;;;;;5057860;28;20289;-79
2023/09/03 01:50:08;;;;;;;27.23;16.73;;;14.80;99.90;;;;;;5057443;28;20178;-78
2023/09/03 01:52:43;;;;;;;22.02;15.35;;;14.80;99.90;;;;;;5057978;28;20236;-79
2023/09/03 01:55:11;;;;;;;27.80;17.23;;;14.80;99.90;;;;;;5076883;28;20181;-79
2023/09/03 01:57:43;;;;;;;28.08;16.52;;;14.80;99.90;;;;;;5077470;28;20174;-79
2023/09/03 02:00:13;;;;;;;25.80;16.58;;;14.70;99.90;;;;;;5077482;28;20252;-79
2023/09/03 02:02:44;;;;;;;26.88;17.75;;;14.70;99.90;;;;;;5078246;28;20661;-78
2023/09/03 02:05:13;;;;;;;26.55;17.33;;;14.70;99.90;;;;;;5077683;28;20166;-79
2023/09/03 02:07:39;;;;;;;33.63;17.10;;;14.60;99.90;;;;;;5078146;28;20217;-79
2023/09/03 02:10:05;;;;;;;38.17;17.58;;;14.60;99.90;;;;;;5078719;28;20569;-79
2023/09/03 02:12:31;;;;;;;23.00;15.77;;;14.60;99.90;;;;;;5078683;28;20609;-78
2023/09/03 02:14:56;;;;;;;34.38;18.08;;;14.60;99.90;;;;;;5077645;28;20311;-79
2023/09/03 02:17:23;;;;;;;31.13;18.23;;;14.50;99.90;;;;;;5077193;28;20177;-79
2023/09/03 02:19:51;;;;;;;28.08;17.98;;;14.50;99.90;;;;;;5077034;28;20331;-78
2023/09/03 02:22:17;;;;;;;25.10;16.48;;;14.50;99.90;;;;;;5078842;28;20196;-79
2023/09/03 02:24:43;;;;;;;25.75;17.27;;;14.60;99.90;;;;;;5077207;28;20672;-79
2023/09/03 02:27:09;;;;;;;25.90;18.75;;;14.60;99.90;;;;;;5078460;28;20205;-79
2023/09/03 02:29:37;;;;;;;34.60;19.15;;;14.60;99.90;;;;;;5076968;28;20699;-79
2023/09/03 02:32:03;;;;;;;30.90;18.83;;;14.60;99.90;;;;;;5078607;28;20180;-79
2023/09/03 02:34:28;;;;;;;32.83;19.70;;;14.60;99.90;;;;;;5076676;28;20182;-78
2023/09/03 02:36:54;;;;;;;29.42;19.10;;;14.60;99.90;;;;;;5078326;28;20170;-79
2023/09/03 02:39:20;;;;;;;30.27;19.80;;;14.60;99.90;;;;;;5076927;28;20185;-79
2023/09/03 02:41:46;;;;;;;25.25;18.30;;;14.60;99.90;;;;;;5078348;28;20177;-80
2023/09/03 02:44:12;;;;;;;30.23;20.35;;;14.60;99.90;;;;;;5076396;28;20194;-79
2023/09/03 02:46:38;;;;;;;30.02;20.15;;;14.60;99.90;;;;;;5076546;28;20260;-79
2023/09/03 02:49:04;;;;;;;33.90;21.60;;;14.50;99.90;;;;;;5077040;28;20177;-79
2023/09/03 02:51:29;;;;;;;30.08;21.55;;;14.50;99.90;;;;;;5076575;28;20586;-79
2023/09/03 02:53:55;;;;;;;33.50;20.73;;;14.40;99.90;;;;;;5076567;28;20243;-79
2023/09/03 02:56:24;;;;;;;34.03;21.35;;;14.40;99.90;;;;;;5076378;28;20550;-79
2023/09/03 02:58:50;;;;;;;30.35;20.77;;;14.30;99.90;;;;;;5076440;28;20182;-79
2023/09/03 03:01:19;;;;;;;28.27;20.30;;;14.30;99.90;;;;;;5077823;28;20209;-79
2023/09/03 03:03:45;;;;;;;27.80;20.52;;;14.30;99.90;;;;;;5076380;28;20198;-78
2023/09/03 03:06:11;;;;;;;44.28;21.70;;;14.30;99.90;;;;;;5076350;28;20197;-79
2023/09/03 03:08:37;;;;;;;26.02;18.88;;;14.30;99.90;;;;;;5076384;28;20221;-79
2023/09/03 03:11:14;;;;;;;26.40;19.75;;;14.30;99.90;;;;;;5075876;28;20263;-79
2023/09/03 03:13:41;;;;;;;31.15;21.08;;;14.30;99.90;;;;;;5076558;28;20190;-79
2023/09/03 03:16:09;;;;;;;31.65;21.50;;;14.30;99.90;;;;;;5075884;28;20680;-79
2023/09/03 03:18:38;;;;;;;33.25;22.30;;;14.40;99.90;;;;;;5076985;28;20178;-78
2023/09/03 03:21:11;;;;;;;38.45;23.40;;;14.40;99.90;;;;;;5077386;28;20184;-79
2023/09/03 03:23:39;;;;;;;37.90;23.70;;;14.40;99.90;;;;;;5075720;28;20198;-78
2023/09/03 03:26:05;;;;;;;42.40;25.70;;;14.40;99.90;;;;;;5076136;28;20201;-79
2023/09/03 03:28:34;;;;;;;52.35;26.88;;;14.40;99.90;;;;;;5076266;28;20662;-79
2023/09/03 03:31:17;;;;;;;37.90;25.10;;;14.50;99.90;;;;;;5075959;28;20177;-79
2023/09/03 03:33:44;;;;;;;44.20;24.83;;;14.50;99.90;;;;;;5075678;28;20190;-78
2023/09/03 03:36:15;;;;;;;44.28;23.85;;;14.40;99.90;;;;;;5077053;28;20654;-79
2023/09/03 03:38:41;;;;;;;34.65;22.30;;;14.40;99.90;;;;;;5076353;28;20181;-79
2023/09/03 03:41:09;;;;;;;41.00;24.13;;;14.40;99.90;;;;;;5077763;28;20205;-79
2023/09/03 03:43:40;;;;;;;37.13;22.42;;;14.40;99.90;;;;;;5075646;28;20270;-79
2023/09/03 03:46:07;;;;;;;35.85;23.27;;;14.50;99.90;;;;;;5075458;28;20178;-79
2023/09/03 03:48:34;;;;;;;42.10;24.52;;;14.50;99.90;;;;;;5075251;28;20197;-79
2023/09/03 03:51:00;;;;;;;49.50;28.42;;;14.50;99.90;;;;;;5074812;28;20174;-79
2023/09/03 03:53:26;;;;;;;53.25;28.58;;;14.60;99.90;;;;;;5074763;28;20198;-78
2023/09/03 03:56:05;;;;;;;52.65;29.15;;;14.60;99.90;;;;;;5074741;28;20549;-79
2023/09/03 03:58:34;;;;;;;56.65;31.08;;;14.60;99.90;;;;;;5075665;28;20213;-79
2023/09/03 04:01:00;;;;;;;44.97;26.90;;;14.60;99.90;;;;;;5074170;28;20231;-79
2023/09/03 04:03:28;;;;;;;49.45;30.58;;;14.70;99.90;;;;;;5075107;28;20197;-79
2023/09/03 04:06:01;;;;;;;50.17;30.52;;;14.80;99.90;;;;;;5074672;28;20208;-80
2023/09/03 04:08:28;;;;;;;55.30;29.33;;;14.80;99.90;;;;;;5074741;28;20239;-79
2023/09/03 04:11:04;;;;;;;53.60;31.45;;;14.80;99.90;;;;;;5076258;28;20177;-79
2023/09/03 04:13:31;;;;;;;51.83;31.08;;;14.80;99.90;;;;;;5074954;28;20205;-79
2023/09/03 04:15:58;;;;;;;50.10;28.15;;;14.80;99.90;;;;;;5074853;28;20182;-79
2023/09/03 04:18:24;;;;;;;47.30;29.45;;;14.90;99.90;;;;;;5074688;28;20232;-79
2023/09/03 04:20:54;;;;;;;48.63;28.35;;;14.90;99.90;;;;;;5075800;28;20176;-79
2023/09/03 04:23:20;;;;;;;49.53;28.50;;;14.90;99.90;;;;;;5074125;28;20197;-78
2023/09/03 04:25:47;;;;;;;51.50;31.00;;;14.90;99.90;;;;;;5073186;28;20331;-79
2023/09/03 04:28:13;;;;;;;55.03;31.50;;;14.90;99.90;;;;;;5074114;28;20255;-79
2023/09/03 04:30:39;;;;;;;58.45;32.92;;;14.90;99.90;;;;;;5074332;28;20248;-79
2023/09/03 04:33:07;;;;;;;51.15;30.17;;;14.90;99.90;;;;;;5074883;28;20198;-78
2023/09/03 04:35:34;;;;;;;52.75;28.45;;;14.90;99.90;;;;;;5074406;28;20174;-78
2023/09/03 04:38:00;;;;;;;49.13;28.45;;;14.90;99.90;;;;;;5074051;28;20520;-79
2023/09/03 04:40:26;;;;;;;45.13;28.27;;;14.90;99.90;;;;;;5073740;28;20212;-79
2023/09/03 04:42:51;;;;;;;49.38;28.80;;;14.90;99.90;;;;;;5073462;28;20205;-79
2023/09/03 04:45:17;;;;;;;52.25;28.95;;;14.90;99.90;;;;;;5074896;28;20174;-79
2023/09/03 04:47:44;;;;;;;46.75;28.45;;;14.80;99.90;;;;;;5073467;28;20201;-79
2023/09/03 04:50:10;;;;;;;49.75;28.73;;;14.80;99.90;;;;;;5073550;28;20174;-78
2023/09/03 04:52:37;;;;;;;49.95;29.50;;;14.80;99.90;;;;;;5074606;28;20186;-79
2023/09/03 04:55:03;;;;;;;55.95;31.08;;;14.80;99.90;;;;;;5073572;28;20189;-78
2023/09/03 04:57:29;;;;;;;44.83;29.02;;;14.80;99.90;;;;;;5074183;28;20193;-79
2023/09/03 04:59:55;;;;;;;48.72;29.00;;;14.80;99.90;;;;;;5073140;28;20543;-78
2023/09/03 05:02:21;;;;;;;51.90;32.28;;;14.80;99.90;;;;;;5073120;28;20559;-79
2023/09/03 05:04:46;;;;;;;63.83;34.13;;;14.80;99.90;;;;;;5072965;28;20235;-78
2023/09/03 05:07:12;;;;;;;73.60;38.53;;;14.90;99.90;;;;;;5073173;28;20217;-79
2023/09/03 05:09:38;;;;;;;65.13;38.88;;;14.80;99.90;;;;;;5075177;28;20236;-79
2023/09/03 05:12:04;;;;;;;67.53;40.22;;;14.80;99.90;;;;;;5076301;28;20184;-79
2023/09/03 05:14:29;;;;;;;56.15;39.90;;;14.80;99.90;;;;;;5080418;28;20527;-79
2023/09/03 05:16:55;;;;;;;68.63;39.30;;;14.70;99.90;;;;;;5081620;28;20211;-79
2023/09/03 05:19:21;;;;;;;86.60;39.33;;;14.80;99.90;;;;;;5079983;28;20174;-78
2023/09/03 05:21:47;;;;;;;71.90;40.22;;;14.80;99.90;;;;;;5081584;28;20537;-79
2023/09/03 05:24:12;;;;;;;58.88;37.22;;;14.80;99.90;;;;;;5081716;28;20197;-79
2023/09/03 05:26:38;;;;;;;62.92;37.40;;;14.80;99.90;;;;;;5080411;28;20173;-79
2023/09/03 05:29:04;;;;;;;64.70;37.78;;;14.80;99.90;;;;;;5081549;28;20201;-79
2023/09/03 05:31:30;;;;;;;66.10;39.20;;;14.80;99.90;;;;;;5081833;28;20169;-79
2023/09/03 05:34:02;;;;;;;63.28;39.55;;;14.80;99.90;;;;;;5080587;28;20201;-79
2023/09/03 05:36:28;;;;;;;59.17;38.42;;;14.80;99.90;;;;;;5081291;28;20256;-79
2023/09/03 05:38:53;;;;;;;66.43;39.70;;;14.80;99.90;;;;;;5081719;28;20209;-79
2023/09/03 05:41:19;;;;;;;75.20;40.53;;;14.80;99.90;;;;;;5079234;28;20188;-79
2023/09/03 05:43:45;;;;;;;64.90;38.45;;;14.70;99.90;;;;;;5079552;28;20569;-79
2023/09/03 05:46:11;;;;;;;49.15;35.60;;;14.70;99.90;;;;;;5079664;28;20181;-79
2023/09/03 05:48:36;;;;;;;59.80;37.67;;;14.70;99.90;;;;;;5079260;28;20197;-79
2023/09/03 05:51:06;;;;;;;52.63;37.42;;;14.60;99.90;;;;;;5078899;28;20641;-78
2023/09/03 05:53:33;;;;;;;56.35;36.83;;;14.70;99.90;;;;;;5078778;28;20197;-79
2023/09/03 05:56:09;;;;;;;58.60;36.88;;;14.80;99.90;;;;;;5080710;28;20169;-79
2023/09/03 05:58:35;;;;;;;75.57;38.38;;;14.80;99.90;;;;;;5079097;28;20185;-79
2023/09/03 06:01:09;;;;;;;63.60;37.17;;;14.80;99.90;;;;;;5080289;28;20247;-79
2023/09/03 06:03:35;;;;;;;58.65;35.42;;;14.90;99.90;;;;;;5080622;28;20190;-79
2023/09/03 06:06:06;;;;;;;51.28;36.22;;;14.90;99.90;;;;;;5079796;28;20213;-79
2023/09/03 06:08:32;;;;;;;60.63;35.25;;;14.90;99.90;;;;;;5079566;28;20196;-79
2023/09/03 06:10:59;;;;;;;63.88;36.45;;;14.80;99.90;;;;;;5079592;28;20552;-79
2023/09/03 06:13:33;;;;;;;52.80;37.10;;;14.80;99.90;;;;;;5079278;28;20599;-79
2023/09/03 06:15:59;;;;;;;51.28;35.25;;;14.80;99.90;;;;;;5080576;28;20227;-78
2023/09/03 06:18:25;;;;;;;53.20;36.05;;;14.80;99.90;;;;;;5080593;28;20180;-79
2023/09/03 06:20:52;;;;;;;43.97;32.55;;;14.90;99.90;;;;;;5079804;28;20219;-79
2023/09/03 06:23:19;;;;;;;53.20;37.28;;;14.90;99.90;;;;;;5078484;28;20198;-79
2023/09/03 06:25:46;;;;;;;45.88;34.92;;;14.90;99.90;;;;;;5075808;28;20178;-79
2023/09/03 06:28:12;;;;;;;58.22;36.17;;;15.00;99.90;;;;;;5077276;28;20200;-79
2023/09/03 06:30:38;;;;;;;48.08;35.47;;;15.00;99.90;;;;;;5076062;28;20185;-79
2023/09/03 06:33:04;;;;;;;49.72;36.10;;;15.10;99.90;;;;;;5075971;28;20190;-79
2023/09/03 06:35:30;;;;;;;62.55;36.70;;;15.10;99.90;;;;;;5075301;28;20178;-78
2023/09/03 06:37:57;;;;;;;57.15;37.33;;;15.10;99.90;;;;;;5075812;28;20633;-79
2023/09/03 06:40:23;;;;;;;52.25;36.08;;;15.10;99.90;;;;;;5075718;28;20177;-79
2023/09/03 06:42:49;;;;;;;87.13;36.47;;;15.10;99.90;;;;;;5075487;28;20208;-79
2023/09/03 06:45:15;;;;;;;52.50;33.85;;;15.10;99.90;;;;;;5077198;28;20177;-79
2023/09/03 06:47:41;;;;;;;48.85;35.90;;;15.10;99.90;;;;;;5075712;28;20209;-79
2023/09/03 06:50:08;;;;;;;63.63;37.78;;;15.10;99.90;;;;;;5075328;28;20641;-78
2023/09/03 06:52:36;;;;;;;57.42;36.00;;;15.10;99.90;;;;;;5075206;28;20542;-80
2023/09/03 06:55:02;;;;;;;59.90;34.05;;;15.10;99.90;;;;;;5075615;28;20189;-78
2023/09/03 06:57:28;;;;;;;46.60;31.98;;;15.20;99.90;;;;;;5077217;28;20555;-79
2023/09/03 06:59:54;;;;;;;49.13;33.50;;;15.30;99.90;;;;;;5076949;28;20174;-79
2023/09/03 07:02:20;;;;;;;57.38;35.08;;;15.30;99.90;;;;;;5075307;28;20734;-79
2023/09/03 07:04:46;;;;;;;55.38;34.67;;;15.40;99.90;;;;;;5076447;28;20182;-78
2023/09/03 07:07:12;;;;;;;46.45;32.38;;;15.40;99.90;;;;;;5075043;28;20213;-79
2023/09/03 07:09:38;;;;;;;49.80;32.17;;;15.30;99.90;;;;;;5075085;28;20178;-79
2023/09/03 07:12:05;;;;;;;51.22;34.95;;;15.40;99.90;;;;;;5075522;28;20178;-79
2023/09/03 07:14:32;;;;;;;44.97;31.92;;;15.40;99.90;;;;;;5075328;28;20173;-79
2023/09/03 07:16:58;;;;;;;45.72;33.70;;;15.50;99.90;;;;;;5076647;28;20541;-79
2023/09/03 07:19:25;;;;;;;40.35;30.90;;;15.50;99.90;;;;;;5076413;28;20170;-78
2023/09/03 07:21:51;;;;;;;40.13;29.77;;;15.50;99.90;;;;;;5075021;28;20197;-79
2023/09/03 07:24:17;;;;;;;48.20;33.72;;;15.60;99.90;;;;;;5074610;28;20662;-78
2023/09/03 07:26:43;;;;;;;44.47;33.10;;;15.60;99.90;;;;;;5074955;28;20177;-79
2023/09/03 07:29:08;;;;;;;52.28;35.70;;;15.60;99.90;;;;;;5074778;28;20217;-79
2023/09/03 07:31:41;;;;;;;52.50;34.17;;;15.60;99.90;;;;;;5076785;28;20228;-80
2023/09/03 07:34:10;;;;;;;52.17;35.15;;;15.60;99.90;;;;;;5075507;28;20281;-79
2023/09/03 07:36:37;;;;;;;53.30;32.63;;;15.70;99.90;;;;;;5074772;28;20722;-78
2023/09/03 07:39:06;;;;;;;47.45;33.40;;;15.70;99.90;;;;;;5075265;28;20205;-79
2023/09/03 07:41:33;;;;;;;46.42;32.33;;;15.70;99.90;;;;;;5074623;28;20224;-79
2023/09/03 07:43:59;;;;;;;55.85;34.50;;;15.70;99.90;;;;;;5076058;28;20583;-79
2023/09/03 07:46:26;;;;;;;50.55;35.03;;;15.70;99.90;;;;;;5075758;28;20261;-79
2023/09/03 07:48:52;;;;;;;52.40;36.22;;;15.70;99.90;;;;;;5074664;28;20201;-79
2023/09/03 07:51:19;;;;;;;48.78;33.90;;;15.70;99.90;;;;;;5074344;28;20518;-78
2023/09/03 07:53:47;;;;;;;52.83;34.67;;;15.70;99.90;;;;;;5075646;28;20189;-79
2023/09/03 07:56:16;;;;;;;49.53;35.38;;;15.70;99.90;;;;;;5075915;28;20162;-79
2023/09/03 07:58:42;;;;;;;52.85;34.47;;;15.70;99.90;;;;;;5074240;28;20182;-79
2023/09/03 08:01:11;;;;;;;48.80;34.38;;;15.70;99.90;;;;;;5075904;28;20220;-79
2023/09/03 08:03:38;;;;;;;53.40;35.30;;;15.70;99.90;;;;;;5074096;28;20724;-79
2023/09/03 08:06:04;;;;;;;51.15;34.67;;;15.70;99.90;;;;;;5073882;28;20203;-79
2023/09/03 08:08:30;;;;;;;55.30;36.08;;;15.70;99.90;;;;;;5073888;28;20210;-79
2023/09/03 08:10:57;;;;;;;52.03;36.47;;;15.60;99.90;;;;;;5074120;28;20245;-79
2023/09/03 08:13:23;;;;;;;58.72;37.83;;;15.60;99.90;;;;;;5075363;28;20226;-79
2023/09/03 08:15:49;;;;;;;53.65;36.70;;;15.50;99.90;;;;;;5073941;28;20657;-79
2023/09/03 08:18:15;;;;;;;59.22;38.47;;;15.50;99.90;;;;;;5075342;28;20185;-79
2023/09/03 08:20:42;;;;;;;55.20;36.95;;;15.60;99.90;;;;;;5073949;28;20182;-78
2023/09/03 08:23:14;;;;;;;57.08;39.50;;;15.60;99.90;;;;;;5073473;28;20232;-78
2023/09/03 08:25:40;;;;;;;67.35;40.28;;;15.70;99.90;;;;;;5073943;28;20542;-79
2023/09/03 08:28:08;;;;;;;58.28;38.45;;;15.60;99.90;;;;;;5073721;28;20216;-79
2023/09/03 08:30:34;;;;;;;63.33;40.58;;;15.70;99.90;;;;;;5074136;28;20751;-79
2023/09/03 08:33:00;;;;;;;67.25;41.47;;;15.60;99.90;;;;;;5074019;28;20201;-79
2023/09/03 08:35:27;;;;;;;60.58;41.13;;;15.70;99.90;;;;;;5073712;28;20180;-78
2023/09/03 08:37:53;;;;;;;62.40;40.00;;;15.70;99.90;;;;;;5073899;28;20177;-78
2023/09/03 08:40:19;;;;;;;58.45;40.63;;;15.90;99.90;;;;;;5073746;28;20181;-79
2023/09/03 08:42:48;;;;;;;60.40;39.78;;;15.90;99.90;;;;;;5073377;28;20197;-79
2023/09/03 08:45:17;;;;;;;55.10;38.97;;;16.10;99.90;;;;;;5073633;28;20200;-79
2023/09/03 08:47:44;;;;;;;52.88;36.72;;;16.20;99.90;;;;;;5073429;28;20208;-78
2023/09/03 08:50:16;;;;;;;57.03;38.30;;;16.30;99.90;;;;;;5074742;28;20173;-78
2023/09/03 08:52:43;;;;;;;49.47;35.38;;;16.40;99.90;;;;;;5073585;28;20734;-79
2023/09/03 08:55:11;;;;;;;50.65;37.08;;;16.50;99.90;;;;;;5073616;28;20224;-78
2023/09/03 08:57:37;;;;;;;50.38;34.53;;;16.50;99.90;;;;;;5075064;28;20169;-79
2023/09/03 09:00:06;;;;;;;47.53;36.22;;;16.60;99.90;;;;;;5074027;28;20188;-79
2023/09/03 09:02:36;;;;;;;52.15;37.40;;;16.60;99.90;;;;;;5074175;28;20193;-79
2023/09/03 09:05:04;;;;;;;50.83;38.65;;;16.60;99.90;;;;;;5074420;28;20177;-78
2023/09/03 09:07:30;;;;;;;49.72;37.10;;;16.70;99.90;;;;;;5073889;28;20762;-79
2023/09/03 09:10:00;;;;;;;37.20;30.17;;;16.80;99.90;;;;;;5074246;28;20179;-79
2023/09/03 09:12:47;;;;;;;42.78;34.08;;;16.90;99.90;;;;;;5074304;28;20200;-79
2023/09/03 09:15:13;;;;;;;44.85;34.40;;;17.00;99.90;;;;;;5074376;28;20220;-79
2023/09/03 09:17:43;;;;;;;43.65;32.95;;;17.10;99.90;;;;;;5074283;28;20174;-79
2023/09/03 09:20:12;;;;;;;42.72;33.15;;;17.20;99.90;;;;;;5074148;28;20190;-78
2023/09/03 09:22:49;;;;;;;42.63;34.03;;;17.20;99.90;;;;;;5074169;28;20701;-79
2023/09/03 09:25:25;;;;;;;44.55;33.10;;;17.20;99.90;;;;;;5074105;28;20237;-79
2023/09/03 09:27:56;;;;;;;46.33;34.55;;;17.40;99.90;;;;;;5075949;28;20640;-80
2023/09/03 09:30:24;;;;;;;41.58;32.53;;;17.30;99.90;;;;;;5075929;28;20179;-79
2023/09/03 09:33:10;;;;;;;42.20;32.90;;;17.50;99.90;;;;;;5074473;28;20206;-79
2023/09/03 09:35:36;;;;;;;46.55;34.72;;;17.50;99.90;;;;;;5074645;28;20577;-78
2023/09/03 09:38:07;;;;;;;42.78;33.75;;;17.50;99.90;;;;;;5074363;28;20178;-79
2023/09/03 09:40:36;;;;;;;41.35;32.58;;;17.50;99.90;;;;;;5074174;28;20185;-79
2023/09/03 09:43:06;;;;;;;40.22;31.38;;;17.70;99.90;;;;;;5075048;28;20568;-79
2023/09/03 09:45:32;;;;;;;40.13;31.52;;;17.80;99.90;;;;;;5074354;28;20173;-79
2023/09/03 09:48:05;;;;;;;37.90;30.33;;;17.80;99.90;;;;;;5075307;28;20194;-79
2023/09/03 09:50:32;;;;;;;38.03;30.05;;;17.90;99.90;;;;;;5075038;28;20249;-78
2023/09/03 09:52:58;;;;;;;38.15;32.20;;;18.00;99.90;;;;;;5074787;28;20201;-78
2023/09/03 09:55:24;;;;;;;32.83;27.55;;;18.00;99.90;;;;;;5074164;28;20181;-78
2023/09/03 09:57:51;;;;;;;40.33;30.77;;;18.00;99.90;;;;;;5075865;28;20174;-78
2023/09/03 10:00:34;;;;;;;33.80;28.02;;;18.10;99.90;;;;;;5076125;28;20536;-79
2023/09/03 10:03:00;;;;;;;35.55;30.80;;;18.40;99.90;;;;;;5078831;28;20193;-79
2023/09/03 10:05:26;;;;;;;37.40;30.00;;;18.60;99.90;;;;;;5077154;28;20719;-78
2023/09/03 10:07:53;;;;;;;33.05;29.45;;;18.90;99.90;;;;;;5077733;28;20217;-79
2023/09/03 10:10:19;;;;;;;27.45;24.40;;;19.00;99.90;;;;;;5086806;28;20181;-79
2023/09/03 10:12:45;;;;;;;35.90;27.50;;;19.20;99.90;;;;;;5083237;28;20193;-79
2023/09/03 10:15:15;;;;;;;34.15;27.92;;;19.40;99.90;;;;;;5077177;28;20178;-79
2023/09/03 10:17:44;;;;;;;31.65;28.20;;;19.30;99.90;;;;;;5076372;28;20180;-79
2023/09/03 10:20:15;;;;;;;31.45;27.30;;;19.50;99.90;;;;;;5076280;28;20212;-78
2023/09/03 10:22:43;;;;;;;26.27;23.48;;;19.70;99.90;;;;;;5076323;28;20202;-79
2023/09/03 10:25:13;;;;;;;20.67;18.48;;;19.80;99.90;;;;;;5057579;28;20186;-78
2023/09/03 10:27:45;;;;;;;27.15;24.25;;;20.10;99.90;;;;;;5056266;28;20716;-79
2023/09/03 10:30:14;;;;;;;28.02;23.85;;;20.30;99.90;;;;;;5056670;28;20166;-79
2023/09/03 10:32:42;;;;;;;24.08;20.60;;;20.40;99.90;;;;;;5056836;28;20255;-79
2023/09/03 10:35:09;;;;;;;29.08;20.48;;;20.40;99.90;;;;;;5055984;28;20206;-79
2023/09/03 10:37:40;;;;;;;20.80;17.98;;;20.40;99.90;;;;;;5056711;28;20543;-79
2023/09/03 10:40:21;;;;;;;20.40;15.10;;;20.40;99.90;;;;;;5056648;28;20162;-79
2023/09/03 10:43:13;;;;;;;14.35;12.25;;;20.40;99.90;;;;;;5056739;28;20685;-78
2023/09/03 10:45:39;;;;;;;19.52;15.85;;;20.40;99.90;;;;;;5057530;28;20558;-79
2023/09/03 10:48:05;;;;;;;14.82;12.45;;;20.60;99.90;;;;;;5055692;28;20202;-79
2023/09/03 10:50:52;;;;;;;18.48;14.52;;;20.80;99.90;;;;;;5055470;28;20183;-78
2023/09/03 10:53:41;;;;;;;17.88;13.80;;;20.90;99.90;;;;;;5060369;28;20201;-79
2023/09/03 10:56:13;;;;;;;16.00;11.93;;;21.20;99.90;;;;;;5076269;28;20173;-79
2023/09/03 10:58:59;;;;;;;16.60;11.55;;;21.10;1.00;;;;;;5074966;28;20327;-79
2023/09/03 11:01:31;;;;;;;14.82;10.60;;;21.10;1.00;;;;;;5076363;28;20174;-79
2023/09/03 11:04:02;;;;;;;15.05;10.32;;;21.10;1.00;;;;;;5077144;28;20232;-79
2023/09/03 11:06:32;;;;;;;11.93;10.32;;;21.20;1.00;;;;;;5076596;28;20196;-78
2023/09/03 11:09:02;;;;;;;12.88;9.40;;;21.20;1.00;;;;;;5075895;28;20210;-79
2023/09/03 11:11:36;;;;;;;17.98;11.65;;;21.30;1.00;;;;;;5074658;28;20672;-79
2023/09/03 11:14:02;;;;;;;11.95;8.25;;;21.30;1.00;;;;;;5074567;28;20206;-78
2023/09/03 11:16:29;;;;;;;12.90;9.95;;;21.40;1.00;;;;;;5074573;28;20249;-79
2023/09/03 11:18:55;;;;;;;15.02;8.38;;;21.60;17.80;;;;;;5074919;28;20713;-79
2023/09/03 11:21:25;;;;;;;10.48;8.63;;;21.80;7.50;;;;;;5074383;28;20177;-78
2023/09/03 11:24:18;;;;;;;10.35;9.35;;;22.00;1.00;;;;;;5076374;28;20673;-78
2023/09/03 11:26:44;;;;;;;10.13;6.55;;;22.10;99.90;;;;;;5074869;28;20212;-79
2023/09/03 11:29:21;;;;;;;8.55;6.18;;;22.30;99.90;;;;;;5075499;28;20284;-79
2023/09/03 11:31:51;;;;;;;9.18;6.68;;;22.40;1.00;;;;;;5075160;28;20173;-79
2023/09/03 11:34:17;;;;;;;6.25;4.57;;;22.70;99.90;;;;;;5073878;28;20194;-78
2023/09/03 11:36:44;;;;;;;7.72;6.03;;;22.90;1.00;;;;;;5073995;28;20174;-78
2023/09/03 11:39:14;;;;;;;5.70;4.45;;;22.90;4.60;;;;;;5073902;28;20397;-79
2023/09/03 11:41:45;;;;;;;9.35;6.93;;;23.10;1.00;;;;;;5074346;28;20166;-79
2023/09/03 11:44:15;;;;;;;7.38;5.47;;;22.80;1.00;;;;;;5074479;28;20201;-78
2023/09/03 11:46:54;;;;;;;7.78;5.53;;;22.70;99.90;;;;;;5073530;28;20178;-79
2023/09/03 11:49:23;;;;;;;7.93;6.22;;;22.90;99.90;;;;;;5073928;28;20197;-79
2023/09/03 11:51:49;;;;;;;7.78;5.47;;;22.90;17.20;;;;;;5073411;28;20173;-78
2023/09/03 11:54:25;;;;;;;8.35;5.38;;;23.00;1.00;;;;;;5073350;28;20307;-78
2023/09/03 11:56:58;;;;;;;7.80;5.25;;;23.10;1.00;;;;;;5075495;28;20219;-79
2023/09/03 11:59:24;;;;;;;5.25;4.20;;;23.10;34.50;;;;;;5073646;28;20227;-79
2023/09/03 12:01:52;;;;;;;7.82;5.32;;;22.80;99.90;;;;;;5073587;28;20178;-79
2023/09/03 12:04:18;;;;;;;6.10;3.72;;;22.70;1.00;;;;;;5073785;28;20204;-79
2023/09/03 12:06:44;;;;;;;5.97;4.57;;;23.00;99.90;;;;;;5073957;28;20725;-79
2023/09/03 12:09:10;;;;;;;8.30;6.18;;;23.10;1.00;;;;;;5075238;28;20259;-79
2023/09/03 12:11:35;;;;;;;8.95;5.88;;;23.20;99.90;;;;;;5073343;28;20205;-79
2023/09/03 12:14:01;;;;;;;6.22;5.63;;;23.40;1.00;;;;;;5074850;28;20538;-79
2023/09/03 12:16:28;;;;;;;9.82;7.38;;;23.50;1.00;;;;;;5075013;28;20607;-79
2023/09/03 12:19:01;;;;;;;7.85;5.88;;;23.60;1.00;;;;;;5073577;28;20184;-79
2023/09/03 12:21:35;;;;;;;7.35;5.35;;;23.70;1.00;;;;;;5072380;28;20174;-78
2023/09/03 12:24:06;;;;;;;9.80;6.45;;;23.90;99.90;;;;;;5073758;28;20267;-78
2023/09/03 12:26:35;;;;;;;6.75;6.05;;;24.00;1.00;;;;;;5073641;28;20170;-79
2023/09/03 12:29:03;;;;;;;10.10;8.10;;;24.00;99.90;;;;;;5074045;28;20771;-79
2023/09/03 12:31:43;;;;;;;9.05;5.90;;;24.00;1.00;;;;;;5075093;28;20252;-79
2023/09/03 12:34:10;;;;;;;8.23;5.50;;;24.20;99.90;;;;;;5073878;28;20197;-79
2023/09/03 12:36:56;;;;;;;7.30;6.30;;;24.30;1.00;;;;;;5073535;28;20308;-78
2023/09/03 12:39:32;;;;;;;8.10;7.07;;;24.00;1.00;;;;;;5073888;28;20205;-79